Time;durP1;ratioP1;P1;durP2;ratioP2;P2;SDS_P1;SDS_P2;PMS_P1;PMS_P2;Temp;Humidity;BMP_temperature;BMP_pressure;BME280_temperature;BME280_humidity;BME280_pressure;Samples;Min_cycle;Max_cycle;Signal;HPM_P1;HPM_P2
2023/01/08 00:01:53;;;;;;;;;;;16.50;68.70;;;;;;10254611;28;88522;-60
2023/01/08 00:06:55;;;;;;;;;;;16.50;68.60;;;;;;10254353;28;89095;-60
2023/01/08 00:11:56;;;;;;;;;;;16.50;68.70;;;;;;10255823;28;92993;-61
2023/01/08 00:16:58;;;;;;;;;;;16.50;68.70;;;;;;10254709;28;90027;-60
2023/01/08 00:22:00;;;;;;;;;;;16.50;68.60;;;;;;10237194;28;90256;-60
2023/01/08 00:27:02;;;;;;;;;;;16.40;68.60;;;;;;10254783;28;90024;-60
2023/01/08 00:32:03;;;;;;;;;;;16.50;68.60;;;;;;10252720;28;89687;-60
2023/01/08 00:37:05;;;;;;;;;;;16.50;68.50;;;;;;10253436;28;89678;-60
2023/01/08 00:42:07;;;;;;;;;;;16.50;68.40;;;;;;10253006;28;88871;-60
2023/01/08 00:47:09;;;;;;;;;;;16.50;68.30;;;;;;10253982;28;90175;-60
2023/01/08 00:52:11;;;;;;;;;;;16.40;68.20;;;;;;10252865;28;90095;-60
2023/01/08 00:57:13;;;;;;;;;;;16.40;68.20;;;;;;10234987;28;89039;-61
2023/01/08 01:02:14;;;;;;;;;;;16.40;68.20;;;;;;10252557;28;89117;-60
2023/01/08 01:07:17;;;;;;;;;;;16.40;68.10;;;;;;10250628;28;90056;-59
2023/01/08 01:12:19;;;;;;;;;;;16.40;68.10;;;;;;10234799;28;90097;-59
2023/01/08 01:17:20;;;;;;;;;;;16.40;68.10;;;;;;10253127;28;88850;-59
2023/01/08 01:22:22;;;;;;;;;;;16.40;68.00;;;;;;10252207;28;90757;-60
2023/01/08 01:27:24;;;;;;;;;;;16.40;68.00;;;;;;10252881;28;90141;-60
2023/01/08 01:32:26;;;;;;;;;;;16.30;67.80;;;;;;10251930;28;89141;-60
2023/01/08 01:37:28;;;;;;;;;;;16.30;67.80;;;;;;10252007;28;89007;-60
2023/01/08 01:42:38;;;;;;;;;;;16.30;67.80;;;;;;10251360;28;88934;-60
2023/01/08 01:47:40;;;;;;;;;;;16.30;67.70;;;;;;10251466;28;89320;-60
2023/01/08 01:52:46;;;;;;;;;;;16.30;67.60;;;;;;10234652;28;88585;-60
2023/01/08 01:57:51;;;;;;;;;;;16.30;67.70;;;;;;10251501;28;88378;-60
2023/01/08 02:02:54;;;;;;;;;;;16.20;67.60;;;;;;10709381;22;89088;-60
2023/01/08 02:08:01;;;;;;;;;;;16.20;67.60;;;;;;10380559;28;90125;-60
2023/01/08 02:13:19;;;;;;;;;;;16.20;68.60;;;;;;10381271;28;89726;-62
2023/01/08 02:18:28;;;;;;;;;;;16.20;67.60;;;;;;10382233;28;90104;-60
2023/01/08 02:23:52;;;;;;;;;;;16.20;67.60;;;;;;10382159;28;89171;-60
2023/01/08 02:28:56;;;;;;;;;;;16.20;67.60;;;;;;10363074;28;89273;-59
2023/01/08 02:33:58;;;;;;;;;;;16.20;67.60;;;;;;10381915;28;89807;-60
2023/01/08 02:39:03;;;;;;;;;;;16.10;67.60;;;;;;10381278;28;89193;-59
2023/01/08 02:44:08;;;;;;;;;;;16.20;67.60;;;;;;10379958;28;89035;-60
2023/01/08 02:49:10;;;;;;;;;;;16.20;67.50;;;;;;10380361;28;89558;-60
2023/01/08 02:54:15;;;;;;;;;;;16.10;67.50;;;;;;10380162;28;88942;-60
2023/01/08 02:59:17;;;;;;;;;;;16.10;67.50;;;;;;10379924;28;88100;-60
2023/01/08 03:04:20;;;;;;;;;;;16.10;67.40;;;;;;10377929;28;89763;-59
2023/01/08 03:09:22;;;;;;;;;;;16.10;67.50;;;;;;10362225;28;90239;-60
2023/01/08 03:14:27;;;;;;;;;;;16.10;67.50;;;;;;10380886;28;90248;-60
2023/01/08 03:19:30;;;;;;;;;;;16.10;67.50;;;;;;10379670;28;89099;-59
2023/01/08 03:24:32;;;;;;;;;;;16.10;67.50;;;;;;10379313;28;89056;-60
2023/01/08 03:29:35;;;;;;;;;;;16.10;67.40;;;;;;10380493;28;90178;-60
2023/01/08 03:34:39;;;;;;;;;;;16.10;67.40;;;;;;10379146;28;89237;-60
2023/01/08 03:39:42;;;;;;;;;;;16.10;67.50;;;;;;10380791;28;89297;-59
2023/01/08 03:44:44;;;;;;;;;;;16.10;67.40;;;;;;10378859;28;89277;-60
2023/01/08 03:49:47;;;;;;;;;;;16.10;67.40;;;;;;10379728;28;89699;-60
2023/01/08 03:54:49;;;;;;;;;;;16.00;67.50;;;;;;10359397;28;89885;-59
2023/01/08 03:59:51;;;;;;;;;;;16.00;67.40;;;;;;10361194;28;88840;-59
2023/01/08 04:04:53;;;;;;;;;;;16.00;67.40;;;;;;10378139;28;88919;-60
2023/01/08 04:09:54;;;;;;;;;;;16.00;67.40;;;;;;10379422;28;88949;-60
2023/01/08 04:14:56;;;;;;;;;;;16.00;67.40;;;;;;10360381;28;88623;-60
2023/01/08 04:19:58;;;;;;;;;;;16.00;67.40;;;;;;10360035;28;89189;-59
2023/01/08 04:24:59;;;;;;;;;;;16.00;67.40;;;;;;10359954;28;90230;-59
2023/01/08 04:30:01;;;;;;;;;;;16.00;67.30;;;;;;10378122;28;87937;-60
2023/01/08 04:35:03;;;;;;;;;;;16.00;67.30;;;;;;10377214;28;88400;-60
2023/01/08 04:40:05;;;;;;;;;;;16.00;67.30;;;;;;10377767;28;90361;-60
2023/01/08 04:45:07;;;;;;;;;;;16.00;67.30;;;;;;10376993;28;89582;-60
2023/01/08 06:07:15;;;;;;;;;;;16.50;66.10;;;;;;10292952;28;90652;-60
2023/01/08 06:12:17;;;;;;;;;;;16.70;65.50;;;;;;10293236;28;89131;-60
2023/01/08 06:17:19;;;;;;;;;;;16.80;65.10;;;;;;10291747;28;89888;-60
2023/01/08 06:22:21;;;;;;;;;;;16.90;65.00;;;;;;10292776;28;89125;-60
2023/01/08 06:27:23;;;;;;;;;;;17.00;64.80;;;;;;10294070;28;89258;-60
2023/01/08 06:32:24;;;;;;;;;;;17.00;64.70;;;;;;10290948;28;89078;-60
2023/01/08 06:37:26;;;;;;;;;;;17.00;64.70;;;;;;10291782;28;89073;-60
2023/01/08 06:42:28;;;;;;;;;;;17.00;64.70;;;;;;10292437;28;90063;-60
2023/01/08 06:47:31;;;;;;;;;;;17.00;64.60;;;;;;10291662;28;88073;-60
2023/01/08 06:52:32;;;;;;;;;;;17.00;64.70;;;;;;10295477;28;88846;-60
2023/01/08 06:57:34;;;;;;;;;;;17.10;64.70;;;;;;10298391;28;89048;-60
2023/01/08 07:02:36;;;;;;;;;;;17.20;64.50;;;;;;10303781;28;89084;-60
2023/01/08 07:07:38;;;;;;;;;;;17.30;64.20;;;;;;10362343;28;89238;-60
2023/01/08 07:12:40;;;;;;;;;;;17.30;63.90;;;;;;10381099;28;89810;-60
2023/01/08 07:17:42;;;;;;;;;;;17.30;63.80;;;;;;10381187;28;88541;-60
2023/01/08 07:22:44;;;;;;;;;;;17.30;63.90;;;;;;10380621;28;89898;-60
2023/01/08 07:27:47;;;;;;;;;;;17.20;63.80;;;;;;10380180;28;90135;-60
2023/01/08 07:32:49;;;;;;;;;;;17.20;63.90;;;;;;10379076;28;90817;-61
2023/01/08 07:37:51;;;;;;;;;;;17.30;63.90;;;;;;10379354;28;88823;-60
2023/01/08 07:42:56;;;;;;;;;;;17.40;64.80;;;;;;10380440;28;90006;-60
2023/01/08 07:47:58;;;;;;;;;;;17.40;63.60;;;;;;10379848;28;90085;-59
2023/01/08 07:53:00;;;;;;;;;;;17.40;63.40;;;;;;10379430;28;89180;-60
2023/01/08 07:58:06;;;;;;;;;;;17.40;63.30;;;;;;10378923;28;89878;-60
2023/01/08 08:03:10;;;;;;;;;;;17.30;63.40;;;;;;10361119;28;89729;-60
2023/01/08 08:08:12;;;;;;;;;;;17.30;63.40;;;;;;10379610;28;88921;-60
2023/01/08 08:13:14;;;;;;;;;;;17.20;63.40;;;;;;10378633;28;88868;-60
2023/01/08 08:18:16;;;;;;;;;;;17.10;63.50;;;;;;10378573;28;89761;-60
2023/01/08 08:23:18;;;;;;;;;;;17.10;63.60;;;;;;10377197;28;90039;-60
2023/01/08 08:28:19;;;;;;;;;;;17.00;63.50;;;;;;10376923;28;90373;-60
2023/01/08 08:33:21;;;;;;;;;;;16.90;63.70;;;;;;10358664;28;88311;-60
2023/01/08 08:38:25;;;;;;;;;;;16.90;63.70;;;;;;10378001;28;90169;-60
2023/01/08 08:43:27;;;;;;;;;;;16.80;63.70;;;;;;10377173;28;90083;-60
2023/01/08 08:48:28;;;;;;;;;;;16.80;64.90;;;;;;10376336;28;88154;-60
2023/01/08 08:53:30;;;;;;;;;;;16.80;65.30;;;;;;10376492;28;89408;-60
2023/01/08 08:58:32;;;;;;;;;;;16.70;64.80;;;;;;10377935;28;89307;-60
2023/01/08 09:03:34;;;;;;;;;;;16.60;64.60;;;;;;10374946;28;88098;-61
2023/01/08 09:08:39;;;;;;;;;;;16.60;64.50;;;;;;10358479;28;88459;-61
2023/01/08 09:13:41;;;;;;;;;;;16.60;64.50;;;;;;10374760;28;89621;-60
2023/01/08 09:18:43;;;;;;;;;;;16.60;64.40;;;;;;10375868;28;88963;-61
2023/01/08 09:23:47;;;;;;;;;;;16.60;64.60;;;;;;10376838;28;89912;-61
2023/01/08 09:28:49;;;;;;;;;;;16.50;64.60;;;;;;10357557;28;90261;-60
2023/01/08 09:33:51;;;;;;;;;;;16.50;64.70;;;;;;10377132;28;89060;-60
2023/01/08 09:38:52;;;;;;;;;;;16.50;64.70;;;;;;10376673;28;89044;-60
2023/01/08 09:43:56;;;;;;;;;;;16.50;64.60;;;;;;10375204;28;88686;-60
2023/01/08 09:49:03;;;;;;;;;;;16.50;64.60;;;;;;10376454;28;88302;-60
2023/01/08 09:54:06;;;;;;;;;;;16.50;64.60;;;;;;10375894;28;90431;-60
2023/01/08 09:59:10;;;;;;;;;;;16.50;64.60;;;;;;10357151;28;89244;-61
2023/01/08 10:04:16;;;;;;;;;;;16.50;64.60;;;;;;10372909;28;89697;-60
2023/01/08 10:09:22;;;;;;;;;;;16.50;64.80;;;;;;10374704;28;89470;-61
2023/01/08 10:14:26;;;;;;;;;;;16.50;64.70;;;;;;10373446;28;89399;-60
2023/01/08 10:19:28;;;;;;;;;;;16.50;64.70;;;;;;10356971;28;89900;-61
2023/01/08 10:24:31;;;;;;;;;;;16.50;64.80;;;;;;10374357;28;90317;-61
2023/01/08 10:29:33;;;;;;;;;;;16.50;65.00;;;;;;10382195;28;89387;-61
2023/01/08 10:34:43;;;;;;;;;;;16.50;64.80;;;;;;10381270;28;89251;-61
2023/01/08 10:39:46;;;;;;;;;;;16.50;64.90;;;;;;10381218;28;88807;-61
2023/01/08 10:44:54;;;;;;;;;;;16.50;64.80;;;;;;10381653;28;90205;-61
2023/01/08 10:49:56;;;;;;;;;;;16.50;64.80;;;;;;10379837;28;88600;-60
2023/01/08 10:55:20;;;;;;;;;;;16.60;64.70;;;;;;10380464;28;90643;-61
2023/01/08 11:00:23;;;;;;;;;;;16.80;64.50;;;;;;10381410;28;88860;-61
2023/01/08 11:05:32;;;;;;;;;;;17.00;64.10;;;;;;10379108;28;88885;-61
2023/01/08 11:10:35;;;;;;;;;;;17.10;63.70;;;;;;10379365;28;88897;-63
2023/01/08 11:15:37;;;;;;;;;;;17.20;64.20;;;;;;10380183;28;89050;-63
2023/01/08 11:20:40;;;;;;;;;;;17.30;67.50;;;;;;10379233;28;88268;-61
2023/01/08 11:25:44;;;;;;;;;;;17.30;65.30;;;;;;10379669;28;89031;-61
2023/01/08 11:30:51;;;;;;;;;;;17.30;64.70;;;;;;10380848;28;89137;-61
2023/01/08 11:35:57;;;;;;;;;;;17.30;64.60;;;;;;10378813;28;88413;-61
2023/01/08 11:41:02;;;;;;;;;;;17.40;64.80;;;;;;10378935;28;90549;-61
2023/01/08 11:46:22;;;;;;;;;;;17.40;64.60;;;;;;10360806;28;90244;-61
2023/01/08 11:51:27;;;;;;;;;;;17.60;64.50;;;;;;10379365;28;88283;-61
2023/01/08 11:56:48;;;;;;;;;;;17.60;64.40;;;;;;10379385;28;89224;-61
2023/01/08 12:02:08;;;;;;;;;;;17.60;64.40;;;;;;10378623;28;89007;-61
2023/01/08 12:07:28;;;;;;;;;;;17.60;64.30;;;;;;10378275;28;89233;-61
2023/01/08 12:12:42;;;;;;;;;;;17.60;64.40;;;;;;10378581;28;89269;-61
2023/01/08 12:17:46;;;;;;;;;;;17.50;64.60;;;;;;10378577;28;90218;-61
2023/01/08 12:23:05;;;;;;;;;;;17.50;64.80;;;;;;10379867;28;88415;-61
2023/01/08 12:28:27;;;;;;;;;;;17.40;64.80;;;;;;10378023;28;88786;-62
2023/01/08 12:33:46;;;;;;;;;;;17.40;64.90;;;;;;10363748;28;88394;-61
2023/01/08 12:38:52;;;;;;;;;;;17.30;65.10;;;;;;10376863;28;89849;-61
2023/01/08 12:44:04;;;;;;;;;;;17.30;65.30;;;;;;10359405;28;89343;-62
2023/01/08 12:49:08;;;;;;;;;;;17.30;65.40;;;;;;10376510;28;88106;-61
2023/01/08 12:54:17;;;;;;;;;;;17.30;65.40;;;;;;10377219;28;90141;-62
2023/01/08 12:59:19;;;;;;;;;;;17.30;65.50;;;;;;10376944;28;89053;-60
2023/01/08 13:04:21;;;;;;;;;;;17.30;65.60;;;;;;10358372;28;88817;-62
2023/01/08 13:09:24;;;;;;;;;;;17.30;65.50;;;;;;10376534;28;88412;-61
2023/01/08 13:14:26;;;;;;;;;;;17.30;65.70;;;;;;10377449;28;88891;-61
2023/01/08 13:19:30;;;;;;;;;;;17.30;65.60;;;;;;10377338;28;88982;-60
2023/01/08 13:24:31;;;;;;;;;;;17.30;65.60;;;;;;10375560;28;88958;-61
2023/01/08 13:29:38;;;;;;;;;;;17.30;65.70;;;;;;10375456;28;89771;-61
2023/01/08 13:34:41;;;;;;;;;;;17.30;65.60;;;;;;10375765;28;89978;-61
2023/01/08 13:39:42;;;;;;;;;;;17.30;65.70;;;;;;10376611;28;90357;-61
2023/01/08 13:44:51;;;;;;;;;;;17.30;65.50;;;;;;10375459;28;89070;-61
2023/01/08 13:49:54;;;;;;;;;;;17.30;65.50;;;;;;10376057;28;90046;-61
2023/01/08 13:54:55;;;;;;;;;;;17.30;65.50;;;;;;10374694;28;88586;-61
2023/01/08 13:59:58;;;;;;;;;;;17.30;65.50;;;;;;10375138;28;89493;-61
2023/01/08 14:05:00;;;;;;;;;;;17.30;65.60;;;;;;10374960;28;89494;-61
2023/01/08 14:10:06;;;;;;;;;;;17.30;65.50;;;;;;10373381;28;89163;-61
2023/01/08 14:15:10;;;;;;;;;;;17.30;65.50;;;;;;10340914;28;89275;-61
2023/01/08 14:20:12;;;;;;;;;;;17.30;65.40;;;;;;10373540;28;91035;-61
2023/01/08 14:25:15;;;;;;;;;;;17.30;65.40;;;;;;10374346;28;88679;-62
2023/01/08 14:30:17;;;;;;;;;;;17.30;65.70;;;;;;10355552;28;88153;-61
2023/01/08 14:35:22;;;;;;;;;;;17.30;65.50;;;;;;10373956;28;88932;-61
2023/01/08 14:40:31;;;;;;;;;;;17.30;65.20;;;;;;10373915;28;89285;-61
2023/01/08 14:45:33;;;;;;;;;;;17.30;65.00;;;;;;10356710;28;89088;-61
2023/01/08 14:50:36;;;;;;;;;;;17.30;64.80;;;;;;10373242;28;88734;-61
2023/01/08 14:55:41;;;;;;;;;;;17.30;64.80;;;;;;10374631;28;88175;-62
2023/01/08 15:00:47;;;;;;;;;;;17.30;64.80;;;;;;10372989;28;88747;-61
2023/01/08 15:05:53;;;;;;;;;;;17.40;64.60;;;;;;10338412;28;88859;-61
2023/01/08 15:10:59;;;;;;;;;;;17.40;64.40;;;;;;10372961;28;90472;-61
2023/01/08 15:16:05;;;;;;;;;;;17.40;64.40;;;;;;10361650;28;90165;-62
2023/01/08 15:21:08;;;;;;;;;;;17.30;64.30;;;;;;10379759;28;90237;-61
2023/01/08 15:26:11;;;;;;;;;;;17.30;64.40;;;;;;10378649;28;88913;-61
2023/01/08 15:31:21;;;;;;;;;;;17.40;64.20;;;;;;10380302;28;90073;-62
2023/01/08 15:36:24;;;;;;;;;;;17.40;64.10;;;;;;10378690;28;89114;-61
2023/01/08 15:46:53;;;;;;;;;;;17.40;64.00;;;;;;10379906;28;88136;-61
2023/01/08 15:51:55;;;;;;;;;;;17.50;63.80;;;;;;10360548;28;88754;-61
2023/01/08 15:56:56;;;;;;;;;;;17.60;63.50;;;;;;10377947;28;88939;-61
2023/01/08 16:01:58;;;;;;;;;;;17.80;63.00;;;;;;10378377;28;90949;-61
2023/01/08 16:07:00;;;;;;;;;;;18.00;62.50;;;;;;10377913;28;89053;-62
2023/01/08 16:12:02;;;;;;;;;;;18.10;62.10;;;;;;10378637;28;89180;-62
2023/01/08 16:17:04;;;;;;;;;;;18.20;61.90;;;;;;10377280;28;88173;-61
2023/01/08 16:22:06;;;;;;;;;;;18.10;61.80;;;;;;10378181;28;89024;-61
2023/01/08 16:27:08;;;;;;;;;;;18.10;61.80;;;;;;10377003;28;89120;-62
2023/01/08 16:32:10;;;;;;;;;;;18.00;61.80;;;;;;10358327;28;88159;-62
2023/01/08 16:37:13;;;;;;;;;;;18.10;61.90;;;;;;10378139;28;88125;-62
2023/01/08 16:42:14;;;;;;;;;;;18.20;61.80;;;;;;10359438;28;90036;-61
2023/01/08 16:47:16;;;;;;;;;;;18.30;61.60;;;;;;10376620;28;88869;-61
2023/01/08 16:52:18;;;;;;;;;;;18.40;61.20;;;;;;10375473;28;89647;-61
2023/01/08 16:57:20;;;;;;;;;;;18.40;61.10;;;;;;10376288;28;89082;-61
2023/01/08 17:02:21;;;;;;;;;;;18.30;61.10;;;;;;10375806;28;88108;-61
2023/01/08 17:07:24;;;;;;;;;;;18.20;61.10;;;;;;10377804;28;88483;-62
2023/01/08 17:12:25;;;;;;;;;;;18.20;62.30;;;;;;10375563;28;89994;-62
2023/01/08 17:17:27;;;;;;;;;;;18.20;61.30;;;;;;10376663;28;90014;-61
2023/01/08 17:22:29;;;;;;;;;;;18.40;61.10;;;;;;10376111;28;90173;-63
2023/01/08 17:27:33;;;;;;;;;;;18.50;60.50;;;;;;10376146;28;89462;-62
2023/01/08 17:32:34;;;;;;;;;;;18.50;60.20;;;;;;10375467;28;89147;-61
2023/01/08 17:37:36;;;;;;;;;;;18.40;60.70;;;;;;10374409;28;90709;-61
2023/01/08 17:42:38;;;;;;;;;;;18.40;60.80;;;;;;10374713;28;90987;-61
2023/01/08 17:47:40;;;;;;;;;;;18.30;61.10;;;;;;10373598;28;89115;-61
2023/01/08 17:52:42;;;;;;;;;;;18.20;61.30;;;;;;10374412;28;89280;-61
2023/01/08 17:57:43;;;;;;;;;;;18.30;61.50;;;;;;10374852;28;89750;-61
2023/01/08 18:02:45;;;;;;;;;;;18.40;61.50;;;;;;10373186;28;88943;-60
2023/01/08 18:07:47;;;;;;;;;;;18.40;61.20;;;;;;10376125;28;89837;-59
2023/01/08 18:12:49;;;;;;;;;;;18.40;61.20;;;;;;10374907;28;90151;-61
2023/01/08 18:17:51;;;;;;;;;;;18.40;61.20;;;;;;10375072;28;88365;-61
2023/01/08 18:22:53;;;;;;;;;;;18.30;61.40;;;;;;10373416;28;89373;-61
2023/01/08 18:27:55;;;;;;;;;;;18.20;61.40;;;;;;10356254;28;90145;-61
2023/01/08 18:32:57;;;;;;;;;;;18.10;61.50;;;;;;10372247;28;89833;-60
2023/01/08 18:37:59;;;;;;;;;;;18.00;61.70;;;;;;10373522;28;88494;-61
2023/01/08 18:43:01;;;;;;;;;;;18.00;61.90;;;;;;10373974;28;89306;-61
2023/01/08 18:48:03;;;;;;;;;;;17.90;62.00;;;;;;10377541;28;89470;-61
2023/01/08 18:53:05;;;;;;;;;;;17.80;61.90;;;;;;10381489;28;90027;-61
2023/01/08 18:58:07;;;;;;;;;;;17.70;61.90;;;;;;10380439;28;88489;-61
2023/01/08 19:03:09;;;;;;;;;;;17.70;62.00;;;;;;10379236;28;89336;-60
2023/01/08 19:08:11;;;;;;;;;;;17.60;62.20;;;;;;10382285;28;89532;-60
2023/01/08 19:13:12;;;;;;;;;;;17.60;62.20;;;;;;10363430;28;90174;-60
2023/01/08 19:18:14;;;;;;;;;;;17.60;62.20;;;;;;10381042;28;89360;-60
2023/01/08 19:23:16;;;;;;;;;;;17.60;62.20;;;;;;10380242;28;90900;-60
2023/01/08 19:28:18;;;;;;;;;;;17.50;62.10;;;;;;10381911;28;92607;-60
2023/01/08 19:33:20;;;;;;;;;;;17.50;62.20;;;;;;10379554;28;89081;-61
2023/01/08 19:38:22;;;;;;;;;;;17.40;62.20;;;;;;10379552;28;89009;-60
2023/01/08 19:43:42;;;;;;;;;;;17.30;62.30;;;;;;10378813;28;89057;-60
2023/01/08 19:48:44;;;;;;;;;;;17.30;62.40;;;;;;10378441;28;89287;-60
2023/01/08 19:53:46;;;;;;;;;;;17.30;62.70;;;;;;10379750;28;90193;-60
2023/01/08 19:58:48;;;;;;;;;;;17.20;62.80;;;;;;10379070;28;89250;-61
2023/01/08 20:03:50;;;;;;;;;;;17.20;62.80;;;;;;10377604;28;90009;-60
2023/01/08 20:08:53;;;;;;;;;;;17.20;62.90;;;;;;10378283;28;88572;-61
2023/01/08 20:13:59;;;;;;;;;;;17.10;62.80;;;;;;10376658;28;89702;-60
2023/01/08 20:19:03;;;;;;;;;;;17.10;62.90;;;;;;10377729;28;89092;-60
2023/01/08 20:24:09;;;;;;;;;;;17.10;62.90;;;;;;10360697;28;90065;-60
2023/01/08 20:29:12;;;;;;;;;;;17.00;63.00;;;;;;10377636;28;89564;-60
2023/01/08 20:34:14;;;;;;;;;;;17.00;63.10;;;;;;10377899;28;89215;-61
2023/01/08 20:39:16;;;;;;;;;;;17.00;63.20;;;;;;10377428;28;88951;-60
2023/01/08 20:44:18;;;;;;;;;;;16.90;63.10;;;;;;10377912;28;90159;-60
2023/01/08 20:49:20;;;;;;;;;;;16.90;63.20;;;;;;10378197;28;89377;-60
2023/01/08 20:54:22;;;;;;;;;;;16.90;63.30;;;;;;10377902;28;89994;-60
2023/01/08 20:59:24;;;;;;;;;;;16.80;63.20;;;;;;10377443;28;89009;-60
2023/01/08 21:04:25;;;;;;;;;;;16.80;64.30;;;;;;10375693;28;90740;-60
2023/01/08 21:09:27;;;;;;;;;;;16.80;63.50;;;;;;10377458;28;89154;-60
2023/01/08 21:14:29;;;;;;;;;;;16.70;63.30;;;;;;10376756;28;89025;-60
2023/01/08 21:19:31;;;;;;;;;;;16.70;63.50;;;;;;10377486;28;90192;-60
2023/01/08 21:24:32;;;;;;;;;;;16.70;63.50;;;;;;10376510;28;88523;-60
2023/01/08 21:29:34;;;;;;;;;;;16.70;63.40;;;;;;10376703;28;89047;-61
2023/01/08 21:34:36;;;;;;;;;;;16.60;63.40;;;;;;10376582;28;90477;-61
2023/01/08 21:39:38;;;;;;;;;;;16.70;63.40;;;;;;10358348;28;88109;-61
2023/01/08 21:50:01;;;;;;;;;;;16.60;63.40;;;;;;10375380;28;109787;-60
2023/01/08 21:55:03;;;;;;;;;;;16.60;63.60;;;;;;10374025;28;89656;-61
2023/01/08 22:00:05;;;;;;;;;;;16.60;63.40;;;;;;10375820;28;89798;-61
2023/01/08 22:05:07;;;;;;;;;;;16.60;63.40;;;;;;10374367;28;88443;-60
2023/01/08 22:10:09;;;;;;;;;;;16.50;63.40;;;;;;10375082;28;89497;-61
2023/01/08 22:15:11;;;;;;;;;;;16.50;63.40;;;;;;10374879;28;90209;-60
2023/01/08 22:20:13;;;;;;;;;;;16.50;63.50;;;;;;10372571;28;90170;-60
2023/01/08 22:25:14;;;;;;;;;;;16.50;63.60;;;;;;10382085;28;89104;-60
2023/01/08 22:30:16;;;;;;;;;;;16.50;63.50;;;;;;10382137;28;88388;-60
2023/01/08 22:35:18;;;;;;;;;;;16.50;63.70;;;;;;10382195;28;88614;-60
2023/01/08 22:40:19;;;;;;;;;;;16.50;63.70;;;;;;10381063;28;89068;-60
2023/01/08 22:45:21;;;;;;;;;;;16.50;63.80;;;;;;10380301;28;90732;-60
2023/01/08 22:50:23;;;;;;;;;;;16.50;63.70;;;;;;10363139;28;89638;-60
2023/01/08 22:55:25;;;;;;;;;;;16.50;63.70;;;;;;10381162;28;89114;-60
2023/01/08 23:00:27;;;;;;;;;;;16.50;63.70;;;;;;10380955;28;89263;-60
2023/01/08 23:05:28;;;;;;;;;;;16.40;63.70;;;;;;10380631;28;89578;-60
2023/01/08 23:10:30;;;;;;;;;;;16.50;63.80;;;;;;10380124;28;88333;-60
2023/01/08 23:15:32;;;;;;;;;;;16.50;63.80;;;;;;10380503;28;90339;-61
2023/01/08 23:20:33;;;;;;;;;;;16.40;63.70;;;;;;10381564;28;89574;-61
2023/01/08 23:25:35;;;;;;;;;;;16.40;63.70;;;;;;10361707;28;89162;-61
2023/01/08 23:30:39;;;;;;;;;;;16.40;63.80;;;;;;10379675;28;89859;-61
2023/01/08 23:35:41;;;;;;;;;;;16.30;63.80;;;;;;10377297;28;89895;-61
2023/01/08 23:40:44;;;;;;;;;;;16.40;63.80;;;;;;10379550;28;88870;-61
2023/01/08 23:45:45;;;;;;;;;;;16.40;63.90;;;;;;10379348;28;89879;-61
2023/01/08 23:50:47;;;;;;;;;;;16.40;63.90;;;;;;10380172;28;89972;-59
2023/01/08 23:55:49;;;;;;;;;;;16.40;64.00;;;;;;10360991;28;89145;-61
